sensor_id;sensor_type;location;lat;lon;timestamp;pressure;altitude;pressure_sealevel;temperature;humidity
35908;BME280;22003;50.320;8.054;2022-08-20T00:00:05;99598.75;;;20.60;83.10
35908;BME280;22003;50.320;8.054;2022-08-20T00:02:41;99544.59;;;20.33;83.09
35908;BME280;22003;50.320;8.054;2022-08-20T00:05:09;99575.22;;;20.47;83.52
35908;BME280;22003;50.320;8.054;2022-08-20T00:07:35;99474.00;;;19.57;84.25
35908;BME280;22003;50.320;8.054;2022-08-20T00:10:00;99462.28;;;19.88;84.43
35908;BME280;22003;50.320;8.054;2022-08-20T00:12:26;99385.06;;;19.37;84.39
35908;BME280;22003;50.320;8.054;2022-08-20T00:14:51;99392.66;;;19.19;84.88
35908;BME280;22003;50.320;8.054;2022-08-20T00:17:16;99606.31;;;20.49;85.45
35908;BME280;22003;50.320;8.054;2022-08-20T00:19:41;99409.63;;;18.96;84.74
35908;BME280;22003;50.320;8.054;2022-08-20T00:22:07;99385.91;;;19.23;84.80
35908;BME280;22003;50.320;8.054;2022-08-20T00:24:32;99429.06;;;19.51;84.31
35908;BME280;22003;50.320;8.054;2022-08-20T00:26:59;99598.75;;;20.45;85.27
35908;BME280;22003;50.320;8.054;2022-08-20T00:29:24;99385.81;;;19.46;84.75
35908;BME280;22003;50.320;8.054;2022-08-20T00:31:50;99491.09;;;19.79;86.23
35908;BME280;22003;50.320;8.054;2022-08-20T00:34:15;99600.47;;;20.61;85.61
35908;BME280;22003;50.320;8.054;2022-08-20T00:36:40;99412.66;;;19.31;85.37
35908;BME280;22003;50.320;8.054;2022-08-20T00:39:06;99514.75;;;19.84;86.53
35908;BME280;22003;50.320;8.054;2022-08-20T00:41:31;99589.97;;;20.66;86.09
35908;BME280;22003;50.320;8.054;2022-08-20T00:44:13;99304.81;;;18.75;85.73
35908;BME280;22003;50.320;8.054;2022-08-20T00:46:40;99347.84;;;19.05;87.12
35908;BME280;22003;50.320;8.054;2022-08-20T00:49:17;99598.75;;;20.74;85.56
35908;BME280;22003;50.320;8.054;2022-08-20T00:51:50;99595.84;;;20.76;86.42
35908;BME280;22003;50.320;8.054;2022-08-20T00:54:38;99511.03;;;19.99;88.17
35908;BME280;22003;50.320;8.054;2022-08-20T00:57:25;99545.34;;;20.27;86.10
35908;BME280;22003;50.320;8.054;2022-08-20T00:59:54;99516.16;;;19.94;86.88
35908;BME280;22003;50.320;8.054;2022-08-20T01:02:22;99269.72;;;18.24;87.59
35908;BME280;22003;50.320;8.054;2022-08-20T01:04:50;99630.56;;;20.41;88.00
35908;BME280;22003;50.320;8.054;2022-08-20T01:07:23;99210.00;;;18.30;86.73
35908;BME280;22003;50.320;8.054;2022-08-20T01:09:56;99328.75;;;18.62;88.75
35908;BME280;22003;50.320;8.054;2022-08-20T01:12:22;99632.16;;;20.36;89.14
35908;BME280;22003;50.320;8.054;2022-08-20T01:14:48;99609.25;;;20.40;88.44
35908;BME280;22003;50.320;8.054;2022-08-20T01:17:17;99369.97;;;18.69;89.53
35908;BME280;22003;50.320;8.054;2022-08-20T01:19:47;99602.94;;;20.33;89.54
35908;BME280;22003;50.320;8.054;2022-08-20T01:22:16;99490.38;;;19.47;89.08
35908;BME280;22003;50.320;8.054;2022-08-20T01:25:19;99613.31;;;20.36;89.15
35908;BME280;22003;50.320;8.054;2022-08-20T01:27:47;99541.09;;;19.50;90.85
35908;BME280;22003;50.320;8.054;2022-08-20T01:30:14;99614.63;;;20.10;91.38
35908;BME280;22003;50.320;8.054;2022-08-20T01:32:40;99316.22;;;18.16;91.96
35908;BME280;22003;50.320;8.054;2022-08-20T01:35:06;99519.56;;;19.36;91.21
35908;BME280;22003;50.320;8.054;2022-08-20T01:37:32;99403.81;;;18.70;90.40
35908;BME280;22003;50.320;8.054;2022-08-20T01:39:57;99595.69;;;20.18;89.44
35908;BME280;22003;50.320;8.054;2022-08-20T01:45:45;99570.53;;;19.82;89.51
35908;BME280;22003;50.320;8.054;2022-08-20T01:48:12;99367.91;;;18.71;90.11
35908;BME280;22003;50.320;8.054;2022-08-20T01:50:40;99382.50;;;18.91;90.12
35908;BME280;22003;50.320;8.054;2022-08-20T01:53:16;99555.91;;;19.84;89.51
35908;BME280;22003;50.320;8.054;2022-08-20T01:55:42;99395.13;;;19.20;89.49
35908;BME280;22003;50.320;8.054;2022-08-20T01:58:08;99522.81;;;19.46;90.53
35908;BME280;22003;50.320;8.054;2022-08-20T02:00:33;99405.97;;;18.75;91.91
35908;BME280;22003;50.320;8.054;2022-08-20T02:03:00;99345.94;;;18.30;91.78
35908;BME280;22003;50.320;8.054;2022-08-20T02:05:28;99525.81;;;19.51;90.74
35908;BME280;22003;50.320;8.054;2022-08-20T02:07:53;99630.25;;;19.92;91.93
35908;BME280;22003;50.320;8.054;2022-08-20T02:10:19;99345.28;;;18.28;91.86
35908;BME280;22003;50.320;8.054;2022-08-20T02:12:45;99428.97;;;18.92;90.29
35908;BME280;22003;50.320;8.054;2022-08-20T02:15:11;99615.06;;;20.14;90.61
35908;BME280;22003;50.320;8.054;2022-08-20T02:17:38;99443.50;;;18.83;92.49
35908;BME280;22003;50.320;8.054;2022-08-20T02:20:12;99616.38;;;19.88;94.05
35908;BME280;22003;50.320;8.054;2022-08-20T02:22:55;99534.72;;;19.29;94.70
35908;BME280;22003;50.320;8.054;2022-08-20T02:25:22;99551.44;;;19.39;92.88
35908;BME280;22003;50.320;8.054;2022-08-20T02:27:49;99566.66;;;19.46;92.05
35908;BME280;22003;50.320;8.054;2022-08-20T02:30:20;99322.50;;;17.78;93.12
35908;BME280;22003;50.320;8.054;2022-08-20T02:32:46;99351.91;;;17.86;93.44
35908;BME280;22003;50.320;8.054;2022-08-20T02:35:12;99618.47;;;19.55;94.94
35908;BME280;22003;50.320;8.054;2022-08-20T02:37:43;99542.50;;;19.01;95.49
35908;BME280;22003;50.320;8.054;2022-08-20T02:40:12;99614.66;;;19.49;94.91
35908;BME280;22003;50.320;8.054;2022-08-20T02:42:38;99629.22;;;19.55;95.56
35908;BME280;22003;50.320;8.054;2022-08-20T02:45:06;99447.66;;;18.31;95.35
35908;BME280;22003;50.320;8.054;2022-08-20T02:47:32;99328.94;;;17.91;93.91
35908;BME280;22003;50.320;8.054;2022-08-20T02:49:57;99528.34;;;19.30;93.25
35908;BME280;22003;50.320;8.054;2022-08-20T02:52:24;99612.38;;;19.84;92.67
35908;BME280;22003;50.320;8.054;2022-08-20T02:54:49;99553.28;;;19.38;93.47
35908;BME280;22003;50.320;8.054;2022-08-20T02:57:18;99614.84;;;19.86;92.73
35908;BME280;22003;50.320;8.054;2022-08-20T02:59:48;99504.72;;;19.25;92.12
35908;BME280;22003;50.320;8.054;2022-08-20T03:02:14;99620.34;;;19.92;92.50
35908;BME280;22003;50.320;8.054;2022-08-20T03:04:41;99621.69;;;19.73;91.97
35908;BME280;22003;50.320;8.054;2022-08-20T03:07:07;99633.88;;;19.84;92.31
35908;BME280;22003;50.320;8.054;2022-08-20T03:09:34;99617.44;;;19.79;92.25
35908;BME280;22003;50.320;8.054;2022-08-20T03:12:00;99623.03;;;19.92;92.20
35908;BME280;22003;50.320;8.054;2022-08-20T03:14:27;99411.53;;;18.73;90.93
35908;BME280;22003;50.320;8.054;2022-08-20T03:16:52;99548.34;;;19.27;92.33
35908;BME280;22003;50.320;8.054;2022-08-20T03:19:18;99457.75;;;18.83;92.92
35908;BME280;22003;50.320;8.054;2022-08-20T03:21:43;99353.06;;;18.37;92.40
35908;BME280;22003;50.320;8.054;2022-08-20T03:24:09;99156.75;;;16.89;93.38
35908;BME280;22003;50.320;8.054;2022-08-20T03:26:35;99611.53;;;19.84;93.96
35908;BME280;22003;50.320;8.054;2022-08-20T03:29:02;99533.06;;;19.28;93.78
35908;BME280;22003;50.320;8.054;2022-08-20T03:31:27;99421.44;;;18.41;94.21
35908;BME280;22003;50.320;8.054;2022-08-20T03:33:54;99378.00;;;18.23;95.37
35908;BME280;22003;50.320;8.054;2022-08-20T03:36:23;99353.56;;;18.18;95.08
35908;BME280;22003;50.320;8.054;2022-08-20T03:38:49;99629.44;;;19.91;93.48
35908;BME280;22003;50.320;8.054;2022-08-20T03:41:15;99381.69;;;18.22;93.46
35908;BME280;22003;50.320;8.054;2022-08-20T03:43:40;99442.81;;;18.81;93.54
35908;BME280;22003;50.320;8.054;2022-08-20T03:46:06;99645.22;;;20.09;93.77
35908;BME280;22003;50.320;8.054;2022-08-20T03:48:32;99423.38;;;18.79;93.86
35908;BME280;22003;50.320;8.054;2022-08-20T03:50:57;99645.50;;;19.76;95.62
35908;BME280;22003;50.320;8.054;2022-08-20T03:53:25;99527.56;;;19.21;95.23
35908;BME280;22003;50.320;8.054;2022-08-20T03:55:56;99380.97;;;18.28;96.41
35908;BME280;22003;50.320;8.054;2022-08-20T03:58:26;99639.97;;;19.78;96.99
35908;BME280;22003;50.320;8.054;2022-08-20T04:00:53;99396.34;;;18.11;96.76
35908;BME280;22003;50.320;8.054;2022-08-20T04:03:18;99626.53;;;19.78;98.13
35908;BME280;22003;50.320;8.054;2022-08-20T04:05:45;99646.09;;;19.72;98.72
35908;BME280;22003;50.320;8.054;2022-08-20T04:11:32;99643.66;;;19.54;99.28
35908;BME280;22003;50.320;8.054;2022-08-20T04:13:57;99655.38;;;19.84;98.90
35908;BME280;22003;50.320;8.054;2022-08-20T04:16:23;99572.66;;;19.11;98.94
35908;BME280;22003;50.320;8.054;2022-08-20T04:18:48;99422.75;;;18.23;98.94
35908;BME280;22003;50.320;8.054;2022-08-20T04:21:13;99353.03;;;18.00;98.36
35908;BME280;22003;50.320;8.054;2022-08-20T04:23:39;99361.50;;;17.80;99.43
35908;BME280;22003;50.320;8.054;2022-08-20T04:26:04;99566.66;;;19.01;100.00
35908;BME280;22003;50.320;8.054;2022-08-20T04:28:29;99388.16;;;18.05;100.00
35908;BME280;22003;50.320;8.054;2022-08-20T04:30:57;99434.97;;;18.48;100.00
35908;BME280;22003;50.320;8.054;2022-08-20T04:33:24;99653.66;;;19.68;100.00
35908;BME280;22003;50.320;8.054;2022-08-20T04:35:51;99578.13;;;18.94;100.00
35908;BME280;22003;50.320;8.054;2022-08-20T04:38:18;99588.03;;;19.17;100.00
35908;BME280;22003;50.320;8.054;2022-08-20T04:40:44;99675.34;;;19.67;100.00
35908;BME280;22003;50.320;8.054;2022-08-20T04:43:29;99459.75;;;18.27;100.00
35908;BME280;22003;50.320;8.054;2022-08-20T04:45:57;99573.59;;;18.95;100.00
35908;BME280;22003;50.320;8.054;2022-08-20T04:48:24;99548.63;;;18.86;99.89
35908;BME280;22003;50.320;8.054;2022-08-20T04:50:51;99597.22;;;19.22;99.87
35908;BME280;22003;50.320;8.054;2022-08-20T04:53:19;99253.19;;;16.96;98.29
35908;BME280;22003;50.320;8.054;2022-08-20T04:55:45;99663.75;;;19.43;99.99
35908;BME280;22003;50.320;8.054;2022-08-20T04:58:16;99569.34;;;18.78;100.00
35908;BME280;22003;50.320;8.054;2022-08-20T05:00:47;99652.81;;;19.45;99.84
35908;BME280;22003;50.320;8.054;2022-08-20T05:03:13;99499.41;;;18.71;99.71
35908;BME280;22003;50.320;8.054;2022-08-20T05:05:39;99658.94;;;19.62;100.00
35908;BME280;22003;50.320;8.054;2022-08-20T05:08:05;99667.50;;;19.57;100.00
35908;BME280;22003;50.320;8.054;2022-08-20T05:10:30;99674.41;;;19.51;100.00
35908;BME280;22003;50.320;8.054;2022-08-20T05:12:55;99669.69;;;19.53;100.00
35908;BME280;22003;50.320;8.054;2022-08-20T05:15:21;99647.66;;;19.58;100.00
35908;BME280;22003;50.320;8.054;2022-08-20T05:17:54;99673.78;;;19.72;100.00
35908;BME280;22003;50.320;8.054;2022-08-20T05:20:20;99651.63;;;19.70;99.42
35908;BME280;22003;50.320;8.054;2022-08-20T05:22:46;99665.66;;;19.81;99.09
35908;BME280;22003;50.320;8.054;2022-08-20T05:25:11;99667.59;;;19.87;98.39
35908;BME280;22003;50.320;8.054;2022-08-20T05:27:37;99677.00;;;19.91;98.56
35908;BME280;22003;50.320;8.054;2022-08-20T05:30:06;99669.69;;;19.99;97.37
35908;BME280;22003;50.320;8.054;2022-08-20T05:32:32;99675.00;;;20.08;97.46
35908;BME280;22003;50.320;8.054;2022-08-20T05:34:59;99683.69;;;20.10;96.90
35908;BME280;22003;50.320;8.054;2022-08-20T05:37:25;99675.19;;;20.06;96.14
35908;BME280;22003;50.320;8.054;2022-08-20T05:39:51;99682.84;;;19.94;96.05
35908;BME280;22003;50.320;8.054;2022-08-20T05:42:16;99684.13;;;19.84;97.63
35908;BME280;22003;50.320;8.054;2022-08-20T05:44:42;99690.47;;;20.06;96.24
35908;BME280;22003;50.320;8.054;2022-08-20T05:47:08;99687.84;;;19.97;97.31
35908;BME280;22003;50.320;8.054;2022-08-20T05:49:34;99692.28;;;19.90;98.17
35908;BME280;22003;50.320;8.054;2022-08-20T05:51:59;99663.13;;;19.56;99.70
35908;BME280;22003;50.320;8.054;2022-08-20T05:54:24;99690.44;;;19.91;99.50
35908;BME280;22003;50.320;8.054;2022-08-20T05:56:50;99685.97;;;19.83;99.01
35908;BME280;22003;50.320;8.054;2022-08-20T05:59:15;99690.84;;;19.80;100.00
35908;BME280;22003;50.320;8.054;2022-08-20T06:01:42;99692.28;;;19.90;100.00
35908;BME280;22003;50.320;8.054;2022-08-20T06:04:09;99706.63;;;20.20;97.10
35908;BME280;22003;50.320;8.054;2022-08-20T06:07:03;99700.41;;;20.05;98.46
35908;BME280;22003;50.320;8.054;2022-08-20T06:09:29;99699.19;;;20.08;97.42
35908;BME280;22003;50.320;8.054;2022-08-20T06:11:54;99706.84;;;20.34;96.75
35908;BME280;22003;50.320;8.054;2022-08-20T06:14:20;99709.59;;;20.25;96.43
35908;BME280;22003;50.320;8.054;2022-08-20T06:16:46;99690.09;;;20.09;95.77
35908;BME280;22003;50.320;8.054;2022-08-20T06:19:12;99694.44;;;20.10;96.52
35908;BME280;22003;50.320;8.054;2022-08-20T06:21:38;99702.69;;;19.93;97.03
35908;BME280;22003;50.320;8.054;2022-08-20T06:24:04;99696.41;;;20.01;96.21
35908;BME280;22003;50.320;8.054;2022-08-20T06:26:31;99684.81;;;20.15;95.89
35908;BME280;22003;50.320;8.054;2022-08-20T06:28:58;99702.38;;;20.49;95.01
35908;BME280;22003;50.320;8.054;2022-08-20T06:31:24;99707.38;;;20.67;94.41
35908;BME280;22003;50.320;8.054;2022-08-20T06:33:49;99687.31;;;20.99;89.76
35908;BME280;22003;50.320;8.054;2022-08-20T06:36:15;99697.59;;;21.10;89.93
35908;BME280;22003;50.320;8.054;2022-08-20T06:38:40;99684.81;;;20.82;91.31
35908;BME280;22003;50.320;8.054;2022-08-20T06:41:06;99686.75;;;20.89;90.98
35908;BME280;22003;50.320;8.054;2022-08-20T06:43:32;99664.81;;;20.92;90.62
35908;BME280;22003;50.320;8.054;2022-08-20T06:45:57;99687.13;;;21.37;87.83
35908;BME280;22003;50.320;8.054;2022-08-20T06:48:23;99686.56;;;21.41;87.90
35908;BME280;22003;50.320;8.054;2022-08-20T06:50:48;99674.22;;;21.32;87.37
35908;BME280;22003;50.320;8.054;2022-08-20T06:53:17;99684.38;;;21.51;87.06
35908;BME280;22003;50.320;8.054;2022-08-20T06:55:46;99691.00;;;21.49;86.31
35908;BME280;22003;50.320;8.054;2022-08-20T06:58:12;99694.81;;;21.54;87.49
35908;BME280;22003;50.320;8.054;2022-08-20T07:00:40;99693.59;;;22.06;86.25
35908;BME280;22003;50.320;8.054;2022-08-20T07:03:06;99684.22;;;22.24;83.61
35908;BME280;22003;50.320;8.054;2022-08-20T07:05:34;99689.53;;;22.10;84.06
35908;BME280;22003;50.320;8.054;2022-08-20T07:08:00;99669.72;;;21.82;84.06
35908;BME280;22003;50.320;8.054;2022-08-20T07:10:27;99696.31;;;21.85;84.77
35908;BME280;22003;50.320;8.054;2022-08-20T07:12:53;99687.34;;;21.78;84.43
35908;BME280;22003;50.320;8.054;2022-08-20T07:15:20;99671.47;;;21.47;86.13
35908;BME280;22003;50.320;8.054;2022-08-20T07:17:49;99675.88;;;21.97;82.77
35908;BME280;22003;50.320;8.054;2022-08-20T07:20:15;99698.84;;;22.36;82.33
35908;BME280;22003;50.320;8.054;2022-08-20T07:22:41;99674.53;;;22.36;82.04
35908;BME280;22003;50.320;8.054;2022-08-20T07:25:09;99704.78;;;22.59;82.29
35908;BME280;22003;50.320;8.054;2022-08-20T07:27:35;99705.50;;;22.40;82.69
35908;BME280;22003;50.320;8.054;2022-08-20T07:30:01;99693.72;;;22.48;81.90
35908;BME280;22003;50.320;8.054;2022-08-20T07:33:04;99689.31;;;22.12;82.46
35908;BME280;22003;50.320;8.054;2022-08-20T07:35:29;99711.66;;;22.06;82.96
35908;BME280;22003;50.320;8.054;2022-08-20T07:37:55;99730.59;;;21.91;83.46
35908;BME280;22003;50.320;8.054;2022-08-20T07:40:23;99721.47;;;21.71;83.97
35908;BME280;22003;50.320;8.054;2022-08-20T07:42:51;99710.63;;;21.43;85.50
35908;BME280;22003;50.320;8.054;2022-08-20T07:45:17;99724.13;;;21.28;86.40
35908;BME280;22003;50.320;8.054;2022-08-20T07:47:44;99718.69;;;21.43;85.64
35908;BME280;22003;50.320;8.054;2022-08-20T07:50:15;99728.69;;;21.64;84.78
35908;BME280;22003;50.320;8.054;2022-08-20T07:52:41;99720.34;;;21.80;84.40
35908;BME280;22003;50.320;8.054;2022-08-20T07:55:09;99728.56;;;21.93;84.46
35908;BME280;22003;50.320;8.054;2022-08-20T07:57:36;99729.47;;;22.00;84.40
35908;BME280;22003;50.320;8.054;2022-08-20T08:00:04;99732.09;;;22.43;81.56
35908;BME280;22003;50.320;8.054;2022-08-20T08:02:32;99718.38;;;22.10;81.68
35908;BME280;22003;50.320;8.054;2022-08-20T08:04:57;99727.25;;;22.32;81.23
35908;BME280;22003;50.320;8.054;2022-08-20T08:07:22;99710.00;;;22.05;81.91
35908;BME280;22003;50.320;8.054;2022-08-20T08:09:49;99724.78;;;22.37;81.27
35908;BME280;22003;50.320;8.054;2022-08-20T08:12:15;99723.41;;;22.48;80.89
35908;BME280;22003;50.320;8.054;2022-08-20T08:14:42;99694.75;;;22.19;80.25
35908;BME280;22003;50.320;8.054;2022-08-20T08:17:09;99708.84;;;22.42;79.99
35908;BME280;22003;50.320;8.054;2022-08-20T08:19:39;99723.59;;;22.74;79.32
35908;BME280;22003;50.320;8.054;2022-08-20T08:22:11;99721.94;;;22.73;79.20
35908;BME280;22003;50.320;8.054;2022-08-20T08:24:38;99723.22;;;22.84;79.42
35908;BME280;22003;50.320;8.054;2022-08-20T08:27:04;99713.44;;;22.20;83.37
35908;BME280;22003;50.320;8.054;2022-08-20T08:29:29;99727.44;;;22.30;82.69
35908;BME280;22003;50.320;8.054;2022-08-20T08:31:55;99722.88;;;22.59;80.65
35908;BME280;22003;50.320;8.054;2022-08-20T08:34:21;99719.19;;;22.66;79.04
35908;BME280;22003;50.320;8.054;2022-08-20T08:36:49;99686.16;;;21.87;80.68
35908;BME280;22003;50.320;8.054;2022-08-20T08:39:15;99725.84;;;22.14;81.54
35908;BME280;22003;50.320;8.054;2022-08-20T08:41:42;99723.03;;;22.01;81.81
35908;BME280;22003;50.320;8.054;2022-08-20T08:44:23;99724.09;;;22.56;79.45
35908;BME280;22003;50.320;8.054;2022-08-20T08:46:57;99710.75;;;22.48;77.64
35908;BME280;22003;50.320;8.054;2022-08-20T08:49:27;99692.53;;;22.91;76.90
35908;BME280;22003;50.320;8.054;2022-08-20T08:51:57;99718.88;;;22.83;76.95
35908;BME280;22003;50.320;8.054;2022-08-20T08:54:26;99691.63;;;23.26;75.58
35908;BME280;22003;50.320;8.054;2022-08-20T08:56:53;99674.69;;;23.65;74.44
35908;BME280;22003;50.320;8.054;2022-08-20T08:59:19;99721.53;;;23.92;71.82
35908;BME280;22003;50.320;8.054;2022-08-20T09:01:54;99720.81;;;23.43;73.76
35908;BME280;22003;50.320;8.054;2022-08-20T09:04:20;99703.34;;;23.46;72.31
35908;BME280;22003;50.320;8.054;2022-08-20T09:06:48;99708.00;;;23.65;72.86
35908;BME280;22003;50.320;8.054;2022-08-20T09:09:19;99722.63;;;24.04;72.96
35908;BME280;22003;50.320;8.054;2022-08-20T09:11:50;99712.69;;;24.96;64.80
35908;BME280;22003;50.320;8.054;2022-08-20T09:14:17;99706.72;;;24.74;66.04
35908;BME280;22003;50.320;8.054;2022-08-20T09:16:43;99706.38;;;24.44;67.04
35908;BME280;22003;50.320;8.054;2022-08-20T09:19:08;99713.81;;;24.68;66.35
35908;BME280;22003;50.320;8.054;2022-08-20T09:21:34;99697.69;;;25.00;65.45
35908;BME280;22003;50.320;8.054;2022-08-20T09:23:59;99679.31;;;23.84;71.57
35908;BME280;22003;50.320;8.054;2022-08-20T09:26:24;99649.78;;;23.08;73.14
35908;BME280;22003;50.320;8.054;2022-08-20T09:28:50;99722.47;;;23.38;74.18
35908;BME280;22003;50.320;8.054;2022-08-20T09:31:16;99721.44;;;23.39;73.23
35908;BME280;22003;50.320;8.054;2022-08-20T09:33:41;99703.44;;;22.42;74.06
35908;BME280;22003;50.320;8.054;2022-08-20T09:36:06;99693.00;;;21.83;76.71
35908;BME280;22003;50.320;8.054;2022-08-20T09:38:32;99682.47;;;21.88;77.18
35908;BME280;22003;50.320;8.054;2022-08-20T09:40:57;99705.28;;;23.04;72.31
35908;BME280;22003;50.320;8.054;2022-08-20T09:43:22;99707.09;;;23.58;69.08
35908;BME280;22003;50.320;8.054;2022-08-20T09:45:48;99705.47;;;23.64;69.63
35908;BME280;22003;50.320;8.054;2022-08-20T09:48:13;99706.66;;;23.48;69.25
35908;BME280;22003;50.320;8.054;2022-08-20T09:50:46;99679.19;;;22.83;70.53
35908;BME280;22003;50.320;8.054;2022-08-20T09:53:12;99690.38;;;22.80;71.20
35908;BME280;22003;50.320;8.054;2022-08-20T09:55:40;99691.59;;;23.12;71.30
35908;BME280;22003;50.320;8.054;2022-08-20T09:58:15;99687.13;;;23.59;69.61
35908;BME280;22003;50.320;8.054;2022-08-20T10:00:42;99693.84;;;24.56;66.85
35908;BME280;22003;50.320;8.054;2022-08-20T10:03:08;99688.00;;;25.62;64.86
35908;BME280;22003;50.320;8.054;2022-08-20T10:05:33;99670.06;;;26.18;60.19
35908;BME280;22003;50.320;8.054;2022-08-20T10:08:03;99689.22;;;24.77;65.75
35908;BME280;22003;50.320;8.054;2022-08-20T10:10:28;99700.81;;;25.10;67.40
35908;BME280;22003;50.320;8.054;2022-08-20T10:12:53;99706.50;;;23.56;70.59
35908;BME280;22003;50.320;8.054;2022-08-20T10:15:19;99694.78;;;23.29;71.27
35908;BME280;22003;50.320;8.054;2022-08-20T10:17:44;99682.88;;;23.17;72.37
35908;BME280;22003;50.320;8.054;2022-08-20T10:20:11;99702.38;;;22.99;72.60
35908;BME280;22003;50.320;8.054;2022-08-20T10:22:37;99670.34;;;23.03;72.13
35908;BME280;22003;50.320;8.054;2022-08-20T10:25:03;99671.59;;;23.68;68.85
35908;BME280;22003;50.320;8.054;2022-08-20T10:27:29;99663.88;;;24.51;65.78
35908;BME280;22003;50.320;8.054;2022-08-20T10:29:54;99689.56;;;25.45;64.58
35908;BME280;22003;50.320;8.054;2022-08-20T10:32:20;99689.22;;;25.66;62.52
35908;BME280;22003;50.320;8.054;2022-08-20T10:34:45;99683.25;;;25.89;60.19
35908;BME280;22003;50.320;8.054;2022-08-20T10:37:15;99682.66;;;25.49;61.25
35908;BME280;22003;50.320;8.054;2022-08-20T10:39:41;99687.84;;;25.89;60.42
35908;BME280;22003;50.320;8.054;2022-08-20T10:42:06;99693.66;;;24.51;63.53
35908;BME280;22003;50.320;8.054;2022-08-20T10:44:31;99689.56;;;25.83;61.59
35908;BME280;22003;50.320;8.054;2022-08-20T10:46:57;99676.88;;;25.70;60.70
35908;BME280;22003;50.320;8.054;2022-08-20T10:49:22;99658.09;;;26.00;59.78
35908;BME280;22003;50.320;8.054;2022-08-20T10:51:47;99675.38;;;25.49;60.47
35908;BME280;22003;50.320;8.054;2022-08-20T10:54:13;99682.75;;;26.67;59.96
35908;BME280;22003;50.320;8.054;2022-08-20T10:56:39;99690.66;;;26.87;57.82
35908;BME280;22003;50.320;8.054;2022-08-20T10:59:04;99647.06;;;25.39;59.32
35908;BME280;22003;50.320;8.054;2022-08-20T11:01:30;99682.63;;;24.33;62.76
35908;BME280;22003;50.320;8.054;2022-08-20T11:03:55;99685.06;;;24.67;62.26
35908;BME280;22003;50.320;8.054;2022-08-20T11:06:21;99685.13;;;24.41;62.49
35908;BME280;22003;50.320;8.054;2022-08-20T11:08:46;99678.97;;;25.37;60.57
35908;BME280;22003;50.320;8.054;2022-08-20T11:11:11;99673.81;;;25.92;57.91
35908;BME280;22003;50.320;8.054;2022-08-20T11:13:37;99651.22;;;26.66;54.53
35908;BME280;22003;50.320;8.054;2022-08-20T11:16:03;99669.06;;;25.56;55.23
35908;BME280;22003;50.320;8.054;2022-08-20T11:18:29;99674.03;;;25.20;57.59
35908;BME280;22003;50.320;8.054;2022-08-20T11:20:55;99667.03;;;24.99;56.56
35908;BME280;22003;50.320;8.054;2022-08-20T11:23:20;99634.91;;;26.66;54.08
35908;BME280;22003;50.320;8.054;2022-08-20T11:25:46;99661.13;;;27.27;52.54
35908;BME280;22003;50.320;8.054;2022-08-20T11:28:11;99652.00;;;27.63;51.67
35908;BME280;22003;50.320;8.054;2022-08-20T11:30:37;99668.56;;;28.15;48.98
35908;BME280;22003;50.320;8.054;2022-08-20T11:33:03;99665.72;;;28.22;48.56
35908;BME280;22003;50.320;8.054;2022-08-20T11:35:30;99676.63;;;28.22;49.23
35908;BME280;22003;50.320;8.054;2022-08-20T11:37:57;99668.28;;;28.99;48.41
35908;BME280;22003;50.320;8.054;2022-08-20T11:40:24;99660.78;;;29.63;46.95
35908;BME280;22003;50.320;8.054;2022-08-20T11:42:50;99661.81;;;29.17;44.76
35908;BME280;22003;50.320;8.054;2022-08-20T11:45:15;99665.97;;;29.36;40.92
35908;BME280;22003;50.320;8.054;2022-08-20T11:47:41;99659.97;;;29.06;42.58
35908;BME280;22003;50.320;8.054;2022-08-20T11:50:09;99668.97;;;29.80;41.52
35908;BME280;22003;50.320;8.054;2022-08-20T11:52:35;99648.50;;;27.75;46.38
35908;BME280;22003;50.320;8.054;2022-08-20T11:55:01;99670.94;;;28.12;47.23
35908;BME280;22003;50.320;8.054;2022-08-20T11:57:30;99664.75;;;27.21;47.43
35908;BME280;22003;50.320;8.054;2022-08-20T11:59:57;99658.53;;;26.41;48.71
35908;BME280;22003;50.320;8.054;2022-08-20T12:02:23;99635.91;;;27.02;48.32
35908;BME280;22003;50.320;8.054;2022-08-20T12:04:49;99650.09;;;27.64;46.77
35908;BME280;22003;50.320;8.054;2022-08-20T12:07:17;99637.06;;;26.94;46.54
35908;BME280;22003;50.320;8.054;2022-08-20T12:09:44;99666.75;;;26.77;47.56
35908;BME280;22003;50.320;8.054;2022-08-20T12:12:10;99632.53;;;26.08;48.48
35908;BME280;22003;50.320;8.054;2022-08-20T12:14:35;99651.00;;;25.99;49.60
35908;BME280;22003;50.320;8.054;2022-08-20T12:17:15;99626.53;;;26.49;48.40
35908;BME280;22003;50.320;8.054;2022-08-20T12:19:44;99642.41;;;27.01;49.22
35908;BME280;22003;50.320;8.054;2022-08-20T12:22:10;99634.41;;;27.36;48.78
35908;BME280;22003;50.320;8.054;2022-08-20T12:24:35;99633.19;;;27.62;48.32
35908;BME280;22003;50.320;8.054;2022-08-20T12:27:18;99625.78;;;27.81;47.59
35908;BME280;22003;50.320;8.054;2022-08-20T12:29:45;99642.97;;;27.51;48.09
35908;BME280;22003;50.320;8.054;2022-08-20T12:32:11;99655.53;;;27.22;49.00
35908;BME280;22003;50.320;8.054;2022-08-20T12:34:39;99649.19;;;25.62;51.40
35908;BME280;22003;50.320;8.054;2022-08-20T12:37:09;99656.03;;;25.64;52.29
35908;BME280;22003;50.320;8.054;2022-08-20T12:39:37;99631.28;;;26.11;51.18
35908;BME280;22003;50.320;8.054;2022-08-20T12:42:04;99650.44;;;25.91;51.09
35908;BME280;22003;50.320;8.054;2022-08-20T12:44:30;99651.78;;;26.06;50.85
35908;BME280;22003;50.320;8.054;2022-08-20T12:47:28;99646.47;;;26.37;49.71
35908;BME280;22003;50.320;8.054;2022-08-20T12:50:03;99658.25;;;27.64;49.42
35908;BME280;22003;50.320;8.054;2022-08-20T12:52:30;99654.84;;;28.46;48.45
35908;BME280;22003;50.320;8.054;2022-08-20T12:54:57;99625.47;;;27.17;48.91
35908;BME280;22003;50.320;8.054;2022-08-20T12:57:31;99655.13;;;27.79;47.65
35908;BME280;22003;50.320;8.054;2022-08-20T13:00:03;99638.34;;;27.52;48.58
35908;BME280;22003;50.320;8.054;2022-08-20T13:02:29;99659.78;;;26.81;49.34
35908;BME280;22003;50.320;8.054;2022-08-20T13:04:54;99636.78;;;27.74;47.64
35908;BME280;22003;50.320;8.054;2022-08-20T13:07:19;99656.19;;;26.88;48.88